Time;durP1;ratioP1;P1;durP2;ratioP2;P2;SDS_P1;SDS_P2;PMS_P1;PMS_P2;Temp;Humidity;BMP_temperature;BMP_pressure;BME280_temperature;BME280_humidity;BME280_pressure;Samples;Min_cycle;Max_cycle;Signal;HPM_P1;HPM_P2
2023/09/08 00:00:39;;;;;;;;;;;21.00;99.90;;;;;;5025875;28;19926;-78
2023/09/08 00:03:06;;;;;;;;;;;20.90;99.90;;;;;;5022382;28;19952;-77
2023/09/08 00:05:33;;;;;;;;;;;20.90;99.90;;;;;;5024514;28;20021;-78
2023/09/08 00:07:59;;;;;;;;;;;20.90;99.90;;;;;;5028610;28;20380;-77
2023/09/08 00:10:26;;;;;;;;;;;20.90;99.90;;;;;;5029679;28;19933;-78
2023/09/08 00:12:53;;;;;;;;;;;20.90;99.90;;;;;;5023696;28;19925;-77
2023/09/08 00:15:19;;;;;;;;;;;20.90;99.90;;;;;;5024133;28;19925;-78
2023/09/08 00:17:47;;;;;;;;;;;20.80;99.90;;;;;;5021370;28;19960;-77
2023/09/08 00:20:15;;;;;;;;;;;20.80;99.90;;;;;;5020489;28;19925;-78
2023/09/08 00:22:41;;;;;;;;;;;20.80;99.90;;;;;;5043507;28;19949;-77
2023/09/08 00:25:09;;;;;;;;;;;20.70;99.90;;;;;;5029745;28;19932;-78
2023/09/08 00:27:35;;;;;;;;;;;20.80;99.90;;;;;;5017722;28;19929;-78
2023/09/08 00:30:02;;;;;;;;;;;20.70;99.90;;;;;;5023569;28;19929;-77
2023/09/08 00:32:29;;;;;;;;;;;20.70;99.90;;;;;;5025048;28;19980;-78
2023/09/08 00:34:56;;;;;;;;;;;20.80;99.90;;;;;;5019228;28;19929;-78
2023/09/08 00:37:23;;;;;;;;;;;20.70;99.90;;;;;;5028608;28;19932;-78
2023/09/08 00:39:50;;;;;;;;;;;20.70;99.90;;;;;;5029386;28;19925;-78
2023/09/08 00:42:17;;;;;;;;;;;20.60;99.90;;;;;;5020845;28;19929;-78
2023/09/08 00:44:43;;;;;;;;;;;20.60;99.90;;;;;;5021032;28;19925;-78
2023/09/08 00:47:10;;;;;;;;;;;20.60;99.90;;;;;;5032297;28;19948;-78
2023/09/08 00:49:38;;;;;;;;;;;20.60;99.90;;;;;;5027318;28;19930;-77
2023/09/08 00:52:05;;;;;;;;;;;20.60;99.90;;;;;;5040844;28;19936;-78
2023/09/08 00:54:31;;;;;;;;;;;20.60;99.90;;;;;;5029360;28;19925;-78
2023/09/08 00:57:01;;;;;;;;;;;20.50;99.90;;;;;;5032922;28;19926;-77
2023/09/08 00:59:27;;;;;;;;;;;20.50;99.90;;;;;;5038486;28;19940;-77
2023/09/08 01:01:54;;;;;;;;;;;20.50;99.90;;;;;;5032836;28;19929;-78
2023/09/08 01:04:21;;;;;;;;;;;20.50;99.90;;;;;;5020586;28;19929;-78
2023/09/08 01:06:48;;;;;;;;;;;20.40;99.90;;;;;;5022881;28;19925;-77
2023/09/08 01:09:15;;;;;;;;;;;20.40;99.90;;;;;;5025302;28;20434;-78
2023/09/08 01:11:41;;;;;;;;;;;20.40;99.90;;;;;;5017741;28;19926;-78
2023/09/08 01:14:11;;;;;;;;;;;20.40;99.90;;;;;;5018775;28;19929;-78
2023/09/08 01:16:39;;;;;;;;;;;20.40;99.90;;;;;;5024907;28;19932;-77
2023/09/08 01:19:10;;;;;;;;;;;20.40;99.90;;;;;;5018222;28;20013;-78
2023/09/08 01:21:55;;;;;;;;;;;20.40;99.90;;;;;;5024804;28;19925;-78
2023/09/08 01:24:34;;;;;;;;;;;20.40;99.90;;;;;;5031677;28;19983;-78
2023/09/08 01:27:01;;;;;;;;;;;20.40;99.90;;;;;;5024180;28;19929;-77
2023/09/08 01:29:29;;;;;;;;;;;20.30;99.90;;;;;;5021164;28;20286;-78
2023/09/08 01:31:56;;;;;;;;;;;20.30;99.90;;;;;;5024664;28;19933;-78
2023/09/08 01:34:23;;;;;;;;;;;20.30;99.90;;;;;;5022372;28;19932;-78
2023/09/08 01:36:50;;;;;;;;;;;20.30;99.90;;;;;;5022098;28;20024;-78
2023/09/08 01:39:17;;;;;;;;;;;20.30;99.90;;;;;;5025946;28;19971;-79
2023/09/08 01:41:43;;;;;;;;;;;20.20;99.90;;;;;;5022035;28;19929;-78
2023/09/08 01:44:11;;;;;;;;;;;20.20;99.90;;;;;;5026306;28;19925;-77
2023/09/08 01:46:39;;;;;;;;;;;20.20;99.90;;;;;;5051100;28;19926;-77
2023/09/08 01:49:05;;;;;;;;;;;20.20;99.90;;;;;;5029624;28;19992;-77
2023/09/08 01:51:32;;;;;;;;;;;20.20;99.90;;;;;;5035317;28;19936;-77
2023/09/08 01:53:59;;;;;;;;;;;20.20;99.90;;;;;;5032156;28;20361;-76
2023/09/08 01:56:26;;;;;;;;;;;20.10;99.90;;;;;;5019281;28;19926;-77
2023/09/08 01:58:52;;;;;;;;;;;20.10;99.90;;;;;;5019854;28;19925;-77
2023/09/08 02:01:19;;;;;;;;;;;20.10;99.90;;;;;;5028353;28;19925;-77
2023/09/08 02:03:46;;;;;;;;;;;20.10;99.90;;;;;;5029661;28;19929;-77
2023/09/08 02:06:12;;;;;;;;;;;20.10;99.90;;;;;;5023108;28;19972;-77
2023/09/08 02:08:39;;;;;;;;;;;20.00;99.90;;;;;;5025372;28;20343;-77
2023/09/08 02:11:06;;;;;;;;;;;20.00;99.90;;;;;;5027815;28;20396;-78
2023/09/08 02:13:32;;;;;;;;;;;20.00;99.90;;;;;;5021691;28;19925;-78
2023/09/08 02:15:59;;;;;;;;;;;20.00;99.90;;;;;;5029192;28;19925;-78
2023/09/08 02:18:26;;;;;;;;;;;20.00;99.90;;;;;;5026817;28;19929;-77
2023/09/08 02:20:53;;;;;;;;;;;19.90;99.90;;;;;;5024548;28;20020;-78
2023/09/08 02:23:19;;;;;;;;;;;19.90;99.90;;;;;;5023921;28;19926;-78
2023/09/08 02:25:46;;;;;;;;;;;19.90;99.90;;;;;;5025592;28;19972;-77
2023/09/08 02:28:13;;;;;;;;;;;19.90;99.90;;;;;;5019041;28;19929;-77
2023/09/08 02:30:39;;;;;;;;;;;19.90;99.90;;;;;;5028870;28;20352;-78
2023/09/08 02:33:06;;;;;;;;;;;19.90;99.90;;;;;;5028891;28;19948;-77
2023/09/08 02:35:35;;;;;;;;;;;19.90;99.90;;;;;;5027550;28;19926;-78
2023/09/08 02:38:02;;;;;;;;;;;19.80;99.90;;;;;;5042303;28;19988;-79
2023/09/08 02:40:29;;;;;;;;;;;19.80;99.90;;;;;;5025771;28;19996;-77
2023/09/08 02:42:56;;;;;;;;;;;19.80;99.90;;;;;;5019148;28;19929;-78
2023/09/08 02:45:22;;;;;;;;;;;19.80;99.90;;;;;;5030419;28;19925;-77
2023/09/08 02:47:49;;;;;;;;;;;19.80;99.90;;;;;;5028968;28;19932;-77
2023/09/08 02:50:16;;;;;;;;;;;19.80;99.90;;;;;;5031667;28;20380;-77
2023/09/08 02:52:42;;;;;;;;;;;19.70;99.90;;;;;;5024505;28;19925;-78
2023/09/08 02:55:09;;;;;;;;;;;19.70;99.90;;;;;;5027520;28;19972;-78
2023/09/08 02:57:36;;;;;;;;;;;19.70;99.90;;;;;;5019794;28;19929;-77
2023/09/08 03:00:04;;;;;;;;;;;19.70;99.90;;;;;;5026189;28;19929;-77
2023/09/08 03:02:31;;;;;;;;;;;19.70;99.90;;;;;;5029599;28;19925;-78
2023/09/08 03:04:58;;;;;;;;;;;19.70;99.90;;;;;;5029551;28;19962;-78
2023/09/08 03:07:24;;;;;;;;;;;19.70;99.90;;;;;;5025156;28;20299;-78
2023/09/08 03:09:51;;;;;;;;;;;19.70;99.90;;;;;;5026498;28;19988;-77
2023/09/08 03:12:18;;;;;;;;;;;19.70;99.90;;;;;;5020289;28;19952;-78
2023/09/08 03:14:44;;;;;;;;;;;19.60;99.90;;;;;;5023638;28;20347;-78
2023/09/08 03:17:12;;;;;;;;;;;19.60;99.90;;;;;;5028882;28;19925;-77
2023/09/08 03:19:39;;;;;;;;;;;19.60;99.90;;;;;;5029838;28;19988;-78
2023/09/08 03:22:05;;;;;;;;;;;19.60;99.90;;;;;;5019949;28;20152;-78
2023/09/08 03:24:32;;;;;;;;;;;19.60;99.90;;;;;;5024808;28;19979;-77
2023/09/08 03:26:59;;;;;;;;;;;19.60;99.90;;;;;;5024649;28;19926;-77
2023/09/08 03:29:25;;;;;;;;;;;19.50;99.90;;;;;;5025917;28;19925;-78
2023/09/08 03:31:52;;;;;;;;;;;19.50;99.90;;;;;;5025465;28;19929;-77
2023/09/08 03:34:20;;;;;;;;;;;19.50;99.90;;;;;;5032244;28;19925;-77
2023/09/08 03:36:48;;;;;;;;;;;19.50;99.90;;;;;;5017947;28;19976;-77
2023/09/08 03:39:15;;;;;;;;;;;19.50;99.90;;;;;;5024867;28;20010;-77
2023/09/08 03:41:42;;;;;;;;;;;19.50;99.90;;;;;;5022910;28;19925;-76
2023/09/08 03:44:08;;;;;;;;;;;19.50;99.90;;;;;;5019285;28;20008;-77
2023/09/08 03:46:35;;;;;;;;;;;19.50;99.90;;;;;;5026784;28;19932;-76
2023/09/08 03:49:02;;;;;;;;;;;19.40;99.90;;;;;;5028413;28;20304;-77
2023/09/08 03:51:29;;;;;;;;;;;19.50;99.90;;;;;;5028041;28;19926;-77
2023/09/08 03:53:56;;;;;;;;;;;19.50;99.90;;;;;;5022438;28;19983;-76
2023/09/08 03:56:23;;;;;;;;;;;19.40;99.90;;;;;;5024691;28;20404;-77
2023/09/08 03:58:50;;;;;;;;;;;19.40;99.90;;;;;;5016526;28;19925;-76
2023/09/08 04:01:17;;;;;;;;;;;19.40;99.90;;;;;;5028218;28;19932;-77
2023/09/08 04:03:43;;;;;;;;;;;19.40;99.90;;;;;;5028183;28;20020;-77
2023/09/08 04:06:11;;;;;;;;;;;19.40;99.90;;;;;;5019738;28;20340;-77
2023/09/08 04:08:37;;;;;;;;;;;19.30;99.90;;;;;;5036157;28;20401;-77
2023/09/08 04:11:04;;;;;;;;;;;19.30;99.90;;;;;;5024201;28;20340;-77
2023/09/08 04:13:31;;;;;;;;;;;19.30;99.90;;;;;;5018665;28;19925;-77
2023/09/08 04:15:58;;;;;;;;;;;19.30;99.90;;;;;;5023184;28;19933;-78
2023/09/08 04:18:25;;;;;;;;;;;19.30;99.90;;;;;;5031217;28;19965;-78
2023/09/08 04:20:52;;;;;;;;;;;19.30;99.90;;;;;;5026584;28;19925;-77
2023/09/08 04:23:18;;;;;;;;;;;19.30;99.90;;;;;;5037415;28;19925;-78
2023/09/08 04:25:45;;;;;;;;;;;19.20;99.90;;;;;;5041838;28;19926;-78
2023/09/08 04:28:12;;;;;;;;;;;19.20;99.90;;;;;;5028685;28;19948;-77
2023/09/08 04:30:39;;;;;;;;;;;19.20;99.90;;;;;;5036425;28;19936;-76
2023/09/08 04:33:05;;;;;;;;;;;19.20;99.90;;;;;;5035643;28;19933;-76
2023/09/08 04:35:32;;;;;;;;;;;19.20;99.90;;;;;;5018535;28;20311;-75
2023/09/08 04:37:59;;;;;;;;;;;19.20;99.90;;;;;;5017519;28;19926;-77
2023/09/08 04:40:29;;;;;;;;;;;19.20;99.90;;;;;;5023030;28;20346;-77
2023/09/08 04:42:56;;;;;;;;;;;19.20;99.90;;;;;;5018420;28;19929;-76
2023/09/08 04:45:23;;;;;;;;;;;19.20;99.90;;;;;;5018179;28;19926;-77
2023/09/08 04:47:50;;;;;;;;;;;19.10;99.90;;;;;;5024145;28;19932;-78
2023/09/08 04:50:17;;;;;;;;;;;19.10;99.90;;;;;;5021341;28;19936;-78
2023/09/08 04:52:44;;;;;;;;;;;19.10;99.90;;;;;;5017205;28;19925;-77
2023/09/08 04:55:11;;;;;;;;;;;19.10;99.90;;;;;;5025364;28;19925;-78
2023/09/08 04:57:38;;;;;;;;;;;19.10;99.90;;;;;;5023424;28;19935;-78
2023/09/08 05:00:06;;;;;;;;;;;19.10;99.90;;;;;;5022162;28;19925;-77
2023/09/08 05:02:33;;;;;;;;;;;19.10;99.90;;;;;;5022778;28;19925;-78
2023/09/08 05:05:00;;;;;;;;;;;19.00;99.90;;;;;;5021693;28;19929;-79
2023/09/08 05:07:26;;;;;;;;;;;19.00;99.90;;;;;;5019812;28;19980;-78
2023/09/08 05:09:53;;;;;;;;;;;19.00;99.90;;;;;;5025292;28;19932;-77
2023/09/08 05:12:23;;;;;;;;;;;19.10;99.90;;;;;;5022808;28;19925;-77
2023/09/08 05:14:55;;;;;;;;;;;19.00;99.90;;;;;;5022156;28;19925;-78
2023/09/08 05:17:25;;;;;;;;;;;19.00;99.90;;;;;;5020435;28;19925;-77
2023/09/08 05:19:52;;;;;;;;;;;19.00;99.90;;;;;;5018475;28;19929;-78
2023/09/08 05:22:19;;;;;;;;;;;19.00;99.90;;;;;;5014551;28;19980;-78
2023/09/08 05:24:45;;;;;;;;;;;19.00;99.90;;;;;;5024827;28;19932;-77
2023/09/08 05:27:12;;;;;;;;;;;19.10;99.90;;;;;;5037217;28;19925;-77
2023/09/08 05:29:39;;;;;;;;;;;19.00;99.90;;;;;;5040642;28;19955;-77
2023/09/08 05:32:05;;;;;;;;;;;19.10;99.90;;;;;;5024197;28;20278;-78
2023/09/08 05:34:32;;;;;;;;;;;19.10;99.90;;;;;;5021783;28;19925;-78
2023/09/08 05:36:59;;;;;;;;;;;19.10;99.90;;;;;;5014592;28;19988;-77
2023/09/08 05:39:26;;;;;;;;;;;19.10;99.90;;;;;;5031391;28;20385;-78
2023/09/08 05:41:52;;;;;;;;;;;19.10;99.90;;;;;;5025245;28;20336;-77
2023/09/08 05:44:19;;;;;;;;;;;19.10;99.90;;;;;;5030694;28;19925;-77
2023/09/08 05:46:46;;;;;;;;;;;19.10;99.90;;;;;;5018195;28;19926;-77
2023/09/08 05:49:14;;;;;;;;;;;19.10;99.90;;;;;;5022168;28;19980;-78
2023/09/08 05:51:40;;;;;;;;;;;19.10;99.90;;;;;;5014478;28;19980;-78
2023/09/08 05:54:07;;;;;;;;;;;19.20;99.90;;;;;;5021348;28;20535;-78
2023/09/08 05:56:34;;;;;;;;;;;19.20;99.90;;;;;;5025996;28;19979;-77
2023/09/08 05:59:01;;;;;;;;;;;19.20;99.90;;;;;;5025590;28;19926;-77
2023/09/08 06:01:28;;;;;;;;;;;19.20;99.90;;;;;;5016936;28;19929;-77
2023/09/08 06:03:55;;;;;;;;;;;19.30;99.90;;;;;;5023151;28;19925;-78
2023/09/08 06:06:22;;;;;;;;;;;19.30;99.90;;;;;;5015589;28;19929;-77
2023/09/08 06:08:49;;;;;;;;;;;19.30;99.90;;;;;;5020136;28;19932;-77
2023/09/08 06:11:15;;;;;;;;;;;19.40;99.90;;;;;;5025723;28;20459;-78
2023/09/08 06:13:42;;;;;;;;;;;19.40;99.90;;;;;;5026813;28;19931;-77
2023/09/08 06:16:09;;;;;;;;;;;19.40;99.90;;;;;;5033545;28;19993;-78
2023/09/08 06:18:39;;;;;;;;;;;19.40;99.90;;;;;;5028975;28;19925;-78
2023/09/08 06:21:07;;;;;;;;;;;19.50;99.90;;;;;;5028482;28;19929;-78
2023/09/08 06:23:34;;;;;;;;;;;19.50;99.90;;;;;;5021120;28;19925;-78
2023/09/08 06:26:03;;;;;;;;;;;19.50;99.90;;;;;;5026738;28;20434;-77
2023/09/08 06:28:30;;;;;;;;;;;19.60;99.90;;;;;;5029506;28;19979;-77
2023/09/08 06:30:56;;;;;;;;;;;19.60;99.90;;;;;;5017190;28;20348;-78
2023/09/08 06:33:23;;;;;;;;;;;19.60;99.90;;;;;;5024679;28;20019;-78
2023/09/08 06:35:50;;;;;;;;;;;19.70;99.90;;;;;;5017753;28;19941;-78
2023/09/08 06:38:17;;;;;;;;;;;19.70;99.90;;;;;;5023283;28;19925;-78
2023/09/08 06:40:44;;;;;;;;;;;19.80;99.90;;;;;;5021860;28;19925;-78
2023/09/08 06:43:10;;;;;;;;;;;19.80;99.90;;;;;;5026068;28;19935;-77
2023/09/08 06:45:37;;;;;;;;;;;19.80;99.90;;;;;;5019779;28;19933;-78
2023/09/08 06:48:04;;;;;;;;;;;19.90;99.90;;;;;;5030038;28;20017;-78
2023/09/08 06:50:31;;;;;;;;;;;19.90;99.90;;;;;;5025644;28;20008;-79
2023/09/08 06:52:58;;;;;;;;;;;20.00;99.90;;;;;;5027161;28;19961;-77
2023/09/08 06:55:24;;;;;;;;;;;20.00;99.90;;;;;;5031567;28;20355;-78
2023/09/08 06:57:51;;;;;;;;;;;20.10;99.90;;;;;;5031799;28;19988;-78
2023/09/08 07:00:20;;;;;;;;;;;20.10;99.90;;;;;;5025921;28;20385;-78
2023/09/08 07:02:46;;;;;;;;;;;20.10;99.90;;;;;;5027034;28;19929;-77
2023/09/08 07:05:13;;;;;;;;;;;20.20;99.90;;;;;;5026754;28;20020;-77
2023/09/08 07:07:41;;;;;;;;;;;20.20;99.90;;;;;;5028137;28;19925;-78
2023/09/08 07:10:08;;;;;;;;;;;20.30;99.90;;;;;;5026913;28;19925;-77
2023/09/08 07:12:35;;;;;;;;;;;20.30;99.90;;;;;;5033574;28;19925;-76
2023/09/08 07:15:02;;;;;;;;;;;20.30;99.90;;;;;;5021480;28;19929;-77
2023/09/08 07:17:29;;;;;;;;;;;20.40;99.90;;;;;;5027045;28;19925;-77
2023/09/08 07:19:56;;;;;;;;;;;20.40;99.90;;;;;;5024512;28;20028;-77
2023/09/08 07:22:22;;;;;;;;;;;20.50;99.90;;;;;;5043860;28;19971;-78
2023/09/08 07:24:49;;;;;;;;;;;20.50;99.90;;;;;;5021210;28;19933;-75
2023/09/08 07:27:16;;;;;;;;;;;20.50;99.90;;;;;;5029030;28;19928;-78
2023/09/08 07:29:42;;;;;;;;;;;20.50;99.90;;;;;;5021766;28;20379;-78
2023/09/08 07:32:09;;;;;;;;;;;20.60;99.90;;;;;;5024643;28;19984;-77
2023/09/08 07:34:36;;;;;;;;;;;20.70;99.90;;;;;;5028501;28;19987;-78
2023/09/08 07:37:02;;;;;;;;;;;20.70;99.90;;;;;;5036088;28;19925;-79
2023/09/08 07:39:31;;;;;;;;;;;20.70;99.90;;;;;;5029848;28;19926;-79
2023/09/08 07:41:58;;;;;;;;;;;20.70;99.90;;;;;;5030080;28;19971;-79
2023/09/08 07:44:27;;;;;;;;;;;20.80;99.90;;;;;;5040646;28;20020;-78
2023/09/08 07:46:56;;;;;;;;;;;20.80;99.90;;;;;;5039186;28;20036;-78
2023/09/08 07:49:23;;;;;;;;;;;20.90;99.90;;;;;;5031891;28;19925;-78
2023/09/08 07:51:49;;;;;;;;;;;21.00;99.90;;;;;;5037851;28;19969;-77
2023/09/08 07:54:16;;;;;;;;;;;21.00;99.90;;;;;;5033034;28;20752;-77
2023/09/08 07:56:46;;;;;;;;;;;21.00;99.90;;;;;;5035892;28;19924;-77
2023/09/08 07:59:13;;;;;;;;;;;21.10;99.90;;;;;;5051592;28;19925;-77
2023/09/08 08:01:39;;;;;;;;;;;21.10;99.90;;;;;;5035995;28;19960;-77
2023/09/08 08:04:06;;;;;;;;;;;21.20;99.90;;;;;;5029982;28;19971;-78
2023/09/08 08:06:33;;;;;;;;;;;21.20;99.90;;;;;;5035140;28;19925;-78
2023/09/08 08:09:00;;;;;;;;;;;21.30;99.90;;;;;;5025286;28;19988;-79
2023/09/08 08:11:29;;;;;;;;;;;21.30;99.90;;;;;;5043485;28;19980;-78
2023/09/08 08:13:56;;;;;;;;;;;21.40;99.90;;;;;;5025335;28;19925;-79
2023/09/08 08:16:23;;;;;;;;;;;21.40;99.90;;;;;;5022295;28;19926;-79
2023/09/08 08:18:50;;;;;;;;;;;21.40;99.90;;;;;;5031450;28;19926;-77
2023/09/08 08:21:17;;;;;;;;;;;21.50;99.90;;;;;;5032681;28;19925;-78
2023/09/08 08:23:44;;;;;;;;;;;21.50;99.90;;;;;;5022370;28;19925;-78
2023/09/08 08:26:10;;;;;;;;;;;21.50;99.90;;;;;;5025302;28;19955;-77
2023/09/08 08:28:37;;;;;;;;;;;21.60;99.90;;;;;;5026463;28;19928;-79
2023/09/08 08:31:04;;;;;;;;;;;21.60;99.90;;;;;;5020420;28;19929;-78
2023/09/08 08:33:31;;;;;;;;;;;21.70;99.90;;;;;;5032315;28;19943;-78
2023/09/08 08:35:58;;;;;;;;;;;21.80;99.90;;;;;;5030539;28;19969;-78
2023/09/08 08:38:25;;;;;;;;;;;21.80;99.90;;;;;;5038107;28;19932;-79
2023/09/08 08:40:52;;;;;;;;;;;21.80;99.90;;;;;;5024586;28;19925;-79
2023/09/08 08:43:19;;;;;;;;;;;21.90;99.90;;;;;;5026295;28;19925;-78
2023/09/08 08:45:48;;;;;;;;;;;21.90;99.90;;;;;;5035211;28;20008;-79
2023/09/08 08:48:15;;;;;;;;;;;22.00;99.90;;;;;;5030967;28;20012;-79
2023/09/08 08:50:42;;;;;;;;;;;22.00;99.90;;;;;;5028995;28;20323;-79
2023/09/08 08:53:08;;;;;;;;;;;22.10;99.90;;;;;;5022609;28;20396;-78
2023/09/08 08:55:35;;;;;;;;;;;22.20;99.90;;;;;;5020977;28;19925;-77
2023/09/08 08:58:03;;;;;;;;;;;22.20;99.90;;;;;;5028770;28;19925;-79
2023/09/08 09:00:33;;;;;;;;;;;22.30;99.90;;;;;;5021795;28;20305;-79
2023/09/08 09:03:00;;;;;;;;;;;22.30;99.90;;;;;;5021216;28;20442;-79
2023/09/08 09:05:41;;;;;;;;;;;22.40;99.90;;;;;;5025944;28;20002;-79
2023/09/08 09:08:13;;;;;;;;;;;22.50;99.90;;;;;;5024463;28;20399;-78
2023/09/08 09:10:39;;;;;;;;;;;22.50;99.90;;;;;;5024849;28;19929;-78
2023/09/08 09:13:06;;;;;;;;;;;22.60;99.90;;;;;;5043342;28;19926;-79
2023/09/08 09:15:33;;;;;;;;;;;22.60;99.90;;;;;;5037456;28;19929;-77
2023/09/08 09:18:04;;;;;;;;;;;22.70;99.90;;;;;;5037898;28;19979;-79
2023/09/08 09:20:31;;;;;;;;;;;22.80;99.90;;;;;;5030586;28;20037;-79
2023/09/08 09:22:58;;;;;;;;;;;22.80;99.90;;;;;;5021490;28;19929;-78
2023/09/08 09:25:29;;;;;;;;;;;22.90;99.90;;;;;;5018718;28;19956;-78
2023/09/08 09:27:59;;;;;;;;;;;22.90;99.90;;;;;;5040533;28;19925;-79
2023/09/08 09:30:27;;;;;;;;;;;23.00;99.90;;;;;;5026569;28;19933;-77
2023/09/08 09:33:01;;;;;;;;;;;23.00;99.90;;;;;;5019264;28;19925;-77
2023/09/08 09:35:47;;;;;;;;;;;23.10;99.90;;;;;;5025290;28;19951;-77
2023/09/08 09:38:14;;;;;;;;;;;23.20;99.90;;;;;;5034780;28;19933;-77
2023/09/08 09:40:41;;;;;;;;;;;23.20;99.90;;;;;;5032132;28;19929;-76
2023/09/08 09:43:08;;;;;;;;;;;23.30;99.90;;;;;;5024252;28;19925;-77
2023/09/08 09:45:36;;;;;;;;;;;23.30;99.90;;;;;;5027277;28;19940;-78
2023/09/08 09:48:04;;;;;;;;;;;23.50;99.90;;;;;;5018241;28;20359;-77
2023/09/08 09:50:32;;;;;;;;;;;23.50;99.90;;;;;;5025223;28;20348;-78
2023/09/08 09:53:08;;;;;;;;;;;23.60;99.90;;;;;;5017369;28;20432;-77
2023/09/08 09:55:36;;;;;;;;;;;23.70;99.90;;;;;;5018314;28;19931;-77
2023/09/08 09:58:03;;;;;;;;;;;23.80;99.90;;;;;;5022898;28;19926;-77
2023/09/08 10:00:33;;;;;;;;;;;24.00;99.90;;;;;;5029225;28;19929;-78
2023/09/08 10:03:00;;;;;;;;;;;24.00;99.90;;;;;;5016993;28;19976;-77
2023/09/08 10:05:27;;;;;;;;;;;24.10;99.90;;;;;;5022183;28;19936;-78
2023/09/08 10:07:53;;;;;;;;;;;24.10;99.90;;;;;;5035359;28;19995;-78
2023/09/08 10:10:21;;;;;;;;;;;24.20;99.90;;;;;;5017995;28;19936;-78
2023/09/08 10:12:54;;;;;;;;;;;24.20;99.90;;;;;;5026225;28;19965;-76
2023/09/08 10:15:22;;;;;;;;;;;24.30;99.90;;;;;;5026457;28;20404;-77
2023/09/08 10:17:52;;;;;;;;;;;24.30;99.90;;;;;;5019259;28;19971;-78
2023/09/08 10:20:21;;;;;;;;;;;24.30;99.90;;;;;;5027078;28;19944;-77
2023/09/08 10:22:49;;;;;;;;;;;24.30;99.90;;;;;;5023888;28;19925;-78
2023/09/08 10:25:19;;;;;;;;;;;24.40;99.90;;;;;;5021728;28;19972;-78
2023/09/08 10:27:46;;;;;;;;;;;24.40;99.90;;;;;;5027987;28;20401;-78
2023/09/08 10:30:14;;;;;;;;;;;24.40;99.90;;;;;;5032352;28;19925;-78
2023/09/08 10:32:41;;;;;;;;;;;24.40;99.90;;;;;;5021419;28;20273;-78
2023/09/08 10:35:08;;;;;;;;;;;24.50;99.90;;;;;;5043559;28;20303;-78
2023/09/08 10:37:35;;;;;;;;;;;24.50;99.90;;;;;;5025054;28;20343;-78
2023/09/08 10:40:34;;;;;;;;;;;24.50;99.90;;;;;;5026256;28;19929;-78
2023/09/08 10:43:08;;;;;;;;;;;24.60;99.90;;;;;;5017506;28;19925;-79
2023/09/08 10:45:35;;;;;;;;;;;24.70;99.90;;;;;;5029979;28;19929;-79
2023/09/08 10:48:02;;;;;;;;;;;24.80;99.90;;;;;;5039849;28;20291;-77
2023/09/08 10:50:33;;;;;;;;;;;24.80;99.90;;;;;;5037741;28;19995;-78
2023/09/08 10:53:14;;;;;;;;;;;24.90;99.90;;;;;;5027422;28;19935;-78
2023/09/08 10:55:47;;;;;;;;;;;24.90;99.90;;;;;;5030094;28;19941;-79
2023/09/08 10:58:31;;;;;;;;;;;25.00;99.90;;;;;;5031829;28;20396;-78
2023/09/08 11:01:00;;;;;;;;;;;25.00;99.90;;;;;;5025000;28;19926;-77
2023/09/08 11:03:28;;;;;;;;;;;25.00;99.90;;;;;;5022628;28;19929;-78
2023/09/08 11:05:58;;;;;;;;;;;25.00;99.90;;;;;;5028755;28;19931;-78
2023/09/08 11:08:25;;;;;;;;;;;25.00;99.90;;;;;;5030717;28;19925;-78
2023/09/08 11:10:55;;;;;;;;;;;25.10;99.90;;;;;;5026140;28;19971;-78
2023/09/08 11:13:22;;;;;;;;;;;25.20;99.90;;;;;;5029454;28;19929;-78
2023/09/08 11:15:52;;;;;;;;;;;25.30;99.90;;;;;;5023367;28;19972;-78
2023/09/08 11:18:25;;;;;;;;;;;25.30;99.90;;;;;;5023533;28;19925;-77
2023/09/08 11:20:53;;;;;;;;;;;25.40;99.90;;;;;;5034749;28;19931;-77
2023/09/08 11:23:21;;;;;;;;;;;25.60;99.90;;;;;;5030383;28;19926;-79
2023/09/08 11:25:51;;;;;;;;;;;25.60;99.90;;;;;;5035187;28;19930;-78
2023/09/08 11:28:18;;;;;;;;;;;25.70;99.90;;;;;;5031079;28;19925;-79
2023/09/08 11:30:48;;;;;;;;;;;25.80;99.90;;;;;;5031435;28;19969;-80
2023/09/08 11:33:18;;;;;;;;;;;25.80;99.90;;;;;;5022899;28;20012;-79
2023/09/08 11:35:45;;;;;;;;;;;25.80;99.90;;;;;;5026698;28;19956;-79
2023/09/08 11:38:12;;;;;;;;;;;25.90;99.90;;;;;;5022291;28;19925;-79
2023/09/08 11:40:39;;;;;;;;;;;25.90;99.90;;;;;;5029909;28;19932;-79
2023/09/08 11:43:06;;;;;;;;;;;25.90;99.90;;;;;;5030664;28;19934;-79
2023/09/08 11:45:34;;;;;;;;;;;25.90;99.90;;;;;;5025946;28;20367;-79
2023/09/08 11:48:01;;;;;;;;;;;26.00;99.90;;;;;;5020063;28;19926;-79
2023/09/08 11:50:27;;;;;;;;;;;26.10;99.90;;;;;;5031812;28;20464;-79
2023/09/08 11:52:54;;;;;;;;;;;26.20;99.90;;;;;;5027556;28;19948;-80
2023/09/08 11:55:22;;;;;;;;;;;26.30;99.90;;;;;;5026375;28;20313;-79
2023/09/08 11:57:50;;;;;;;;;;;26.40;99.90;;;;;;5024524;28;20008;-79
2023/09/08 12:00:17;;;;;;;;;;;26.40;99.90;;;;;;5026601;28;19936;-79
2023/09/08 12:02:45;;;;;;;;;;;26.50;99.90;;;;;;5018870;28;20007;-79
2023/09/08 12:05:22;;;;;;;;;;;26.60;99.90;;;;;;5028955;28;20016;-79
2023/09/08 12:07:52;;;;;;;;;;;26.60;99.90;;;;;;5031514;28;19988;-79
2023/09/08 12:10:19;;;;;;;;;;;26.70;99.90;;;;;;5025965;28;19948;-79
2023/09/08 12:12:47;;;;;;;;;;;26.90;99.90;;;;;;5024639;28;19937;-79
2023/09/08 12:15:30;;;;;;;;;;;26.90;99.90;;;;;;5027096;28;19932;-80
2023/09/08 12:17:57;;;;;;;;;;;27.00;99.90;;;;;;5019731;28;19988;-80
2023/09/08 12:20:24;;;;;;;;;;;27.20;99.90;;;;;;5029000;28;19925;-79
2023/09/08 12:22:50;;;;;;;;;;;27.20;99.90;;;;;;5031348;28;19982;-79
2023/09/08 12:25:18;;;;;;;;;;;27.20;99.90;;;;;;5025051;28;19925;-79
2023/09/08 12:27:46;;;;;;;;;;;27.20;99.90;;;;;;5024119;28;19972;-79
2023/09/08 12:30:16;;;;;;;;;;;27.30;99.90;;;;;;5027028;28;19926;-79
2023/09/08 12:32:45;;;;;;;;;;;27.30;99.90;;;;;;5022107;28;19925;-79
2023/09/08 12:35:11;;;;;;;;;;;27.30;99.90;;;;;;5029332;28;19940;-78
2023/09/08 12:37:38;;;;;;;;;;;27.50;99.90;;;;;;5031066;28;20277;-79
2023/09/08 12:40:05;;;;;;;;;;;27.40;99.90;;;;;;5025576;28;19932;-79
2023/09/08 12:42:32;;;;;;;;;;;27.40;99.90;;;;;;5022461;28;19969;-79
2023/09/08 12:45:06;;;;;;;;;;;27.40;99.90;;;;;;5025307;28;20817;-80
2023/09/08 12:47:32;;;;;;;;;;;27.40;99.90;;;;;;5021608;28;19925;-79
2023/09/08 12:49:59;;;;;;;;;;;27.40;99.90;;;;;;5028419;28;19925;-79
2023/09/08 12:52:26;;;;;;;;;;;27.40;99.90;;;;;;5027737;28;20396;-79
2023/09/08 12:54:53;;;;;;;;;;;27.50;99.90;;;;;;5027285;28;19979;-79
2023/09/08 12:57:20;;;;;;;;;;;27.50;99.90;;;;;;5021699;28;19929;-79
2023/09/08 12:59:47;;;;;;;;;;;27.50;99.90;;;;;;5026836;28;19930;-79
2023/09/08 13:02:13;;;;;;;;;;;27.60;99.90;;;;;;5020038;28;19925;-79
2023/09/08 13:04:40;;;;;;;;;;;27.60;99.90;;;;;;5019807;28;19929;-79
2023/09/08 13:07:07;;;;;;;;;;;27.60;99.90;;;;;;5027171;28;19925;-79
2023/09/08 13:09:34;;;;;;;;;;;27.60;99.90;;;;;;5024512;28;19933;-80
2023/09/08 13:12:00;;;;;;;;;;;27.70;99.90;;;;;;5020121;28;20027;-79
2023/09/08 13:14:27;;;;;;;;;;;27.70;99.90;;;;;;5027249;28;19980;-79
2023/09/08 13:16:53;;;;;;;;;;;27.70;99.90;;;;;;5021459;28;19929;-80
2023/09/08 13:19:20;;;;;;;;;;;27.80;99.90;;;;;;5029828;28;19925;-79
2023/09/08 13:21:47;;;;;;;;;;;27.80;99.90;;;;;;5026397;28;20384;-80
2023/09/08 13:24:13;;;;;;;;;;;27.90;99.90;;;;;;5025100;28;19991;-79
2023/09/08 13:26:40;;;;;;;;;;;27.90;99.90;;;;;;5020125;28;19933;-80
2023/09/08 13:29:07;;;;;;;;;;;27.80;99.90;;;;;;5025947;28;19976;-79
2023/09/08 13:31:34;;;;;;;;;;;27.90;99.90;;;;;;5022556;28;19936;-79
2023/09/08 13:34:01;;;;;;;;;;;27.90;99.90;;;;;;5019901;28;19952;-80
2023/09/08 13:36:27;;;;;;;;;;;28.00;99.90;;;;;;5039120;28;19926;-80
2023/09/08 13:38:54;;;;;;;;;;;28.00;99.90;;;;;;5027318;28;19926;-79
2023/09/08 13:41:21;;;;;;;;;;;28.00;99.90;;;;;;5018481;28;20439;-79
2023/09/08 13:43:47;;;;;;;;;;;28.00;99.90;;;;;;5025609;28;19949;-79
2023/09/08 13:46:14;;;;;;;;;;;28.00;99.90;;;;;;5022391;28;20611;-79
2023/09/08 13:48:41;;;;;;;;;;;28.10;99.90;;;;;;5043644;28;19975;-79
2023/09/08 13:51:09;;;;;;;;;;;28.20;99.90;;;;;;5024221;28;19925;-79
2023/09/08 13:53:36;;;;;;;;;;;28.20;99.90;;;;;;5026266;28;19926;-79
2023/09/08 13:56:11;;;;;;;;;;;28.10;99.90;;;;;;5017688;28;19975;-79
2023/09/08 13:58:41;;;;;;;;;;;28.20;99.90;;;;;;5024382;28;19929;-79
2023/09/08 14:01:16;;;;;;;;;;;28.10;99.90;;;;;;5025756;28;19932;-79
2023/09/08 14:03:45;;;;;;;;;;;28.20;99.90;;;;;;5031507;28;20278;-80
2023/09/08 14:06:15;;;;;;;;;;;28.20;99.90;;;;;;5034249;28;20424;-79
2023/09/08 14:08:47;;;;;;;;;;;28.10;99.90;;;;;;5025450;28;19933;-79
2023/09/08 14:11:36;;;;;;;;;;;28.10;99.90;;;;;;5017065;28;19932;-79
2023/09/08 14:14:06;;;;;;;;;;;28.20;99.90;;;;;;5025242;28;19925;-79
2023/09/08 14:16:33;;;;;;;;;;;28.20;99.90;;;;;;5030127;28;19925;-79
2023/09/08 14:18:59;;;;;;;;;;;28.20;99.90;;;;;;5027446;28;19980;-79